Time;durP1;ratioP1;P1;durP2;ratioP2;P2;SDS_P1;SDS_P2;PMS_P1;PMS_P2;Temp;Humidity;BMP_temperature;BMP_pressure;BME280_temperature;BME280_humidity;BME280_pressure;Samples;Min_cycle;Max_cycle;Signal;HPM_P1;HPM_P2
2024/01/20 00:00:13;;;;;;;7.55;5.82;;;;;;;;;;5109448;27;20059;-71
2024/01/20 00:02:40;;;;;;;14.02;7.60;;;;;;;;;;5092768;28;20141;-70
2024/01/20 00:05:06;;;;;;;16.13;10.13;;;;;;;;;;5128700;27;20050;-71
2024/01/20 00:07:32;;;;;;;14.23;9.40;;;;;;;;;;5109537;27;20084;-71
2024/01/20 00:09:59;;;;;;;9.70;7.00;;;;;;;;;;5127392;27;20063;-71
2024/01/20 00:12:25;;;;;;;8.02;5.50;;;;;;;;;;5092652;28;20027;-71
2024/01/20 00:14:51;;;;;;;22.08;9.23;;;;;;;;;;5109248;27;20049;-71
2024/01/20 00:17:17;;;;;;;14.15;7.55;;;;;;;;;;5130249;27;20573;-71
2024/01/20 00:19:44;;;;;;;5.40;4.68;;;;;;;;;;5112173;27;20548;-71
2024/01/20 00:22:10;;;;;;;10.90;7.22;;;;;;;;;;5131645;27;20023;-71
2024/01/20 00:24:37;;;;;;;17.58;8.88;;;;;;;;;;5130812;27;20195;-71
2024/01/20 00:27:03;;;;;;;16.48;9.45;;;;;;;;;;5112692;27;20062;-71
2024/01/20 00:29:29;;;;;;;12.75;7.55;;;;;;;;;;5112536;27;20027;-71
2024/01/20 00:31:55;;;;;;;15.48;9.32;;;;;;;;;;5131599;27;20500;-71
2024/01/20 00:34:21;;;;;;;32.53;9.90;;;;;;;;;;5092305;28;20054;-72
2024/01/20 00:36:47;;;;;;;17.13;9.18;;;;;;;;;;5130017;27;20027;-70
2024/01/20 00:39:14;;;;;;;21.25;9.70;;;;;;;;;;5130902;27;20047;-71
2024/01/20 00:41:40;;;;;;;16.63;7.43;;;;;;;;;;5130708;27;20039;-70
2024/01/20 00:44:06;;;;;;;16.50;7.70;;;;;;;;;;5131576;27;20035;-71
2024/01/20 00:46:32;;;;;;;12.38;8.35;;;;;;;;;;5130832;27;20031;-69
2024/01/20 00:48:57;;;;;;;18.85;9.55;;;;;;;;;;5112144;27;20023;-72
2024/01/20 00:51:23;;;;;;;16.15;8.65;;;;;;;;;;5130322;27;20031;-70
2024/01/20 00:53:50;;;;;;;22.35;8.85;;;;;;;;;;5111509;27;20505;-71
2024/01/20 00:56:16;;;;;;;12.00;9.75;;;;;;;;;;5096580;27;20568;-71
2024/01/20 00:58:42;;;;;;;10.50;7.13;;;;;;;;;;5130484;27;20031;-71
2024/01/20 01:01:08;;;;;;;16.67;9.38;;;;;;;;;;5131091;27;20034;-71
2024/01/20 01:03:36;;;;;;;11.10;8.10;;;;;;;;;;5130923;27;20030;-71
2024/01/20 01:06:02;;;;;;;15.88;9.05;;;;;;;;;;5131030;27;20287;-71
2024/01/20 01:08:28;;;;;;;16.30;9.35;;;;;;;;;;5130425;27;20466;-71
2024/01/20 01:10:55;;;;;;;14.98;9.50;;;;;;;;;;5131438;27;20088;-71
2024/01/20 01:13:21;;;;;;;14.40;8.93;;;;;;;;;;5130287;27;20516;-71
2024/01/20 01:15:47;;;;;;;17.63;10.38;;;;;;;;;;5130137;27;20114;-71
2024/01/20 01:18:13;;;;;;;16.67;8.50;;;;;;;;;;5129989;27;20031;-70
2024/01/20 01:20:39;;;;;;;8.80;7.20;;;;;;;;;;5111600;27;20035;-70
2024/01/20 01:23:04;;;;;;;14.73;9.30;;;;;;;;;;5095584;27;20434;-70
2024/01/20 01:25:31;;;;;;;13.27;8.68;;;;;;;;;;5130104;27;20039;-70
2024/01/20 01:27:57;;;;;;;24.75;10.27;;;;;;;;;;5111751;27;20485;-71
2024/01/20 01:30:22;;;;;;;20.52;11.00;;;;;;;;;;5129539;27;20035;-71
2024/01/20 01:32:48;;;;;;;18.92;8.55;;;;;;;;;;5111202;27;20469;-72
2024/01/20 01:35:14;;;;;;;17.33;9.00;;;;;;;;;;5111996;27;20413;-71
2024/01/20 01:37:40;;;;;;;21.60;10.13;;;;;;;;;;5130384;27;20035;-72
2024/01/20 01:40:06;;;;;;;20.45;10.38;;;;;;;;;;5112457;27;20031;-70
2024/01/20 01:42:33;;;;;;;23.95;10.43;;;;;;;;;;5111030;27;20027;-71
2024/01/20 01:44:59;;;;;;;6.53;5.75;;;;;;;;;;5129671;27;20042;-71
2024/01/20 01:47:25;;;;;;;17.23;9.15;;;;;;;;;;5129834;27;20020;-71
2024/01/20 01:49:51;;;;;;;27.10;9.55;;;;;;;;;;5111021;27;20031;-71
2024/01/20 01:52:17;;;;;;;17.60;9.75;;;;;;;;;;5135084;27;20031;-72
2024/01/20 01:54:43;;;;;;;19.08;10.00;;;;;;;;;;5132825;27;20540;-71
2024/01/20 01:57:09;;;;;;;3.38;1.75;;;;;;;;;;5132646;27;20526;-72
2024/01/20 01:59:35;;;;;;;30.05;14.35;;;;;;;;;;5134802;27;20046;-72
2024/01/20 02:02:01;;;;;;;23.88;11.38;;;;;;;;;;5137038;27;20027;-71
2024/01/20 02:04:27;;;;;;;11.77;6.60;;;;;;;;;;5135029;27;20138;-71
2024/01/20 02:06:52;;;;;;;10.05;5.25;;;;;;;;;;5132622;27;20027;-73
2024/01/20 02:09:18;;;;;;;18.50;10.15;;;;;;;;;;5116439;27;20046;-71
2024/01/20 02:11:47;;;;;;;15.93;9.63;;;;;;;;;;5116050;27;20061;-71
2024/01/20 02:14:13;;;;;;;16.35;8.45;;;;;;;;;;5132160;27;20041;-70
2024/01/20 02:16:40;;;;;;;20.00;8.43;;;;;;;;;;5132818;27;20502;-72
2024/01/20 02:19:05;;;;;;;22.85;11.25;;;;;;;;;;5111842;27;20129;-71
2024/01/20 02:21:32;;;;;;;27.73;13.27;;;;;;;;;;5113171;27;20053;-72
2024/01/20 02:23:59;;;;;;;13.00;6.03;;;;;;;;;;5132312;27;20033;-72
2024/01/20 02:26:26;;;;;;;14.73;8.55;;;;;;;;;;5131778;27;20019;-71
2024/01/20 02:28:52;;;;;;;14.55;6.25;;;;;;;;;;5112905;27;20114;-70
2024/01/20 02:31:18;;;;;;;22.60;8.88;;;;;;;;;;5090138;28;20541;-71
2024/01/20 02:33:44;;;;;;;18.02;9.70;;;;;;;;;;5128091;27;20046;-71
2024/01/20 02:36:10;;;;;;;20.70;13.00;;;;;;;;;;5110988;27;20046;-74
2024/01/20 02:38:36;;;;;;;19.50;10.38;;;;;;;;;;5129198;27;20023;-71
2024/01/20 02:41:01;;;;;;;19.40;11.80;;;;;;;;;;5111404;27;20031;-72
2024/01/20 02:43:28;;;;;;;24.90;10.23;;;;;;;;;;5128504;27;20061;-71
2024/01/20 02:45:53;;;;;;;8.15;7.00;;;;;;;;;;5128810;27;20019;-71
2024/01/20 02:48:19;;;;;;;17.15;10.73;;;;;;;;;;5129305;27;20035;-72
2024/01/20 02:50:45;;;;;;;9.25;6.93;;;;;;;;;;5093183;27;20028;-71
2024/01/20 02:53:11;;;;;;;22.85;11.63;;;;;;;;;;5129458;27;20039;-71
2024/01/20 02:55:37;;;;;;;22.55;12.85;;;;;;;;;;5109925;27;20031;-71
2024/01/20 02:58:03;;;;;;;13.52;9.07;;;;;;;;;;5089505;28;20118;-71
2024/01/20 03:00:29;;;;;;;25.50;13.52;;;;;;;;;;5125065;27;20424;-70
2024/01/20 03:02:55;;;;;;;15.45;9.30;;;;;;;;;;5127776;27;20119;-71
2024/01/20 03:05:24;;;;;;;15.60;9.98;;;;;;;;;;5129078;27;20027;-71
2024/01/20 03:07:50;;;;;;;18.58;10.23;;;;;;;;;;5129540;27;20027;-70
2024/01/20 03:10:16;;;;;;;16.02;9.82;;;;;;;;;;5127836;27;20018;-71
2024/01/20 03:12:42;;;;;;;18.23;9.50;;;;;;;;;;5128343;27;20054;-71
2024/01/20 03:15:08;;;;;;;17.20;9.98;;;;;;;;;;5127876;27;20030;-71
2024/01/20 03:17:34;;;;;;;15.70;9.75;;;;;;;;;;5127756;27;20031;-71
2024/01/20 03:20:00;;;;;;;15.20;9.88;;;;;;;;;;5110675;27;20408;-71
2024/01/20 03:22:26;;;;;;;19.05;11.57;;;;;;;;;;5127353;27;20030;-71
2024/01/20 03:24:52;;;;;;;19.13;10.75;;;;;;;;;;5128119;27;20027;-71
2024/01/20 03:27:18;;;;;;;14.02;9.38;;;;;;;;;;5127999;27;20497;-72
2024/01/20 03:29:44;;;;;;;12.88;8.65;;;;;;;;;;5128088;27;20034;-72
2024/01/20 03:32:10;;;;;;;13.10;8.45;;;;;;;;;;5128480;27;20051;-72
2024/01/20 03:34:36;;;;;;;11.63;7.85;;;;;;;;;;5127783;27;20126;-71
2024/01/20 03:37:03;;;;;;;16.08;8.82;;;;;;;;;;5127991;27;20063;-71
2024/01/20 03:39:30;;;;;;;16.88;9.80;;;;;;;;;;5109188;28;20385;-71
2024/01/20 03:41:56;;;;;;;15.65;9.70;;;;;;;;;;5127714;27;20511;-71
2024/01/20 03:44:23;;;;;;;18.30;10.18;;;;;;;;;;5127587;27;20023;-69
2024/01/20 03:46:49;;;;;;;15.63;8.73;;;;;;;;;;5128534;27;20027;-71
2024/01/20 03:49:17;;;;;;;22.60;10.43;;;;;;;;;;5127647;27;20124;-71
2024/01/20 03:51:43;;;;;;;17.33;10.15;;;;;;;;;;5127904;27;20050;-70
2024/01/20 03:54:09;;;;;;;19.48;9.63;;;;;;;;;;5128923;27;20516;-70
2024/01/20 03:56:41;;;;;;;20.60;9.45;;;;;;;;;;5113292;27;20030;-70
2024/01/20 03:59:07;;;;;;;19.80;11.45;;;;;;;;;;5115874;27;20035;-69
2024/01/20 04:01:32;;;;;;;14.65;7.75;;;;;;;;;;5131563;27;20497;-71
2024/01/20 04:03:58;;;;;;;20.55;9.15;;;;;;;;;;5131458;27;20051;-70
2024/01/20 04:06:24;;;;;;;3.92;3.65;;;;;;;;;;5113237;27;20023;-70
2024/01/20 04:08:50;;;;;;;10.07;6.50;;;;;;;;;;5131800;27;20046;-71
2024/01/20 04:11:16;;;;;;;17.27;10.38;;;;;;;;;;5114032;27;20072;-71
2024/01/20 04:13:42;;;;;;;4.00;3.67;;;;;;;;;;5131245;27;20509;-71
2024/01/20 04:16:08;;;;;;;24.05;10.02;;;;;;;;;;5112351;27;20027;-71
2024/01/20 04:18:34;;;;;;;22.08;10.55;;;;;;;;;;5112576;27;20031;-70
2024/01/20 04:20:59;;;;;;;20.42;10.70;;;;;;;;;;5131024;27;20030;-72
2024/01/20 04:23:25;;;;;;;13.07;9.23;;;;;;;;;;5112482;27;20129;-71
2024/01/20 04:25:51;;;;;;;16.10;8.98;;;;;;;;;;5113158;27;20523;-71
2024/01/20 04:28:17;;;;;;;16.15;9.45;;;;;;;;;;5112602;27;20407;-70
2024/01/20 04:30:43;;;;;;;15.25;9.15;;;;;;;;;;5130903;27;20027;-71
2024/01/20 04:33:09;;;;;;;11.45;8.88;;;;;;;;;;5077857;27;20061;-71
2024/01/20 04:35:35;;;;;;;17.70;9.63;;;;;;;;;;5112782;27;20027;-69
2024/01/20 04:38:01;;;;;;;16.75;9.57;;;;;;;;;;5113736;27;20026;-70
2024/01/20 04:40:28;;;;;;;18.08;8.70;;;;;;;;;;5130704;27;20099;-71
2024/01/20 04:42:54;;;;;;;17.52;9.18;;;;;;;;;;5130995;27;20046;-71
2024/01/20 04:45:23;;;;;;;25.35;12.15;;;;;;;;;;5130847;27;20031;-70
2024/01/20 04:47:49;;;;;;;20.02;12.18;;;;;;;;;;5111161;27;20111;-70
2024/01/20 04:50:15;;;;;;;30.60;13.07;;;;;;;;;;5112378;27;20489;-70
2024/01/20 04:52:41;;;;;;;18.75;9.90;;;;;;;;;;5130989;27;20046;-70
2024/01/20 04:55:06;;;;;;;26.35;11.82;;;;;;;;;;5131952;27;20449;-71
2024/01/20 04:57:32;;;;;;;21.05;10.75;;;;;;;;;;5130773;27;20126;-71
2024/01/20 04:59:58;;;;;;;18.02;10.50;;;;;;;;;;5130726;27;20517;-71
2024/01/20 05:02:24;;;;;;;14.68;8.48;;;;;;;;;;5113384;27;20042;-72
2024/01/20 05:04:50;;;;;;;24.92;11.88;;;;;;;;;;5113167;27;20035;-72
2024/01/20 05:07:16;;;;;;;20.55;11.07;;;;;;;;;;5131752;27;20476;-72
2024/01/20 05:09:42;;;;;;;14.95;10.60;;;;;;;;;;5114002;27;20031;-72
2024/01/20 05:12:08;;;;;;;20.73;11.18;;;;;;;;;;5113563;27;20079;-72
2024/01/20 05:14:34;;;;;;;36.17;10.45;;;;;;;;;;5132147;27;20039;-73
2024/01/20 05:17:00;;;;;;;25.15;12.43;;;;;;;;;;5093429;28;20031;-72
2024/01/20 05:19:26;;;;;;;23.45;11.07;;;;;;;;;;5111025;28;20039;-73
2024/01/20 05:21:51;;;;;;;15.00;9.82;;;;;;;;;;5093405;28;20032;-73
2024/01/20 05:24:17;;;;;;;18.10;8.43;;;;;;;;;;5114001;27;20116;-73
2024/01/20 05:26:43;;;;;;;25.50;9.95;;;;;;;;;;5079138;27;20073;-73
2024/01/20 05:29:09;;;;;;;23.50;9.52;;;;;;;;;;5103461;27;20027;-72
2024/01/20 05:31:35;;;;;;;20.13;10.30;;;;;;;;;;5137837;27;20039;-73
2024/01/20 05:34:01;;;;;;;19.45;10.07;;;;;;;;;;5132810;27;20088;-73
2024/01/20 05:36:27;;;;;;;22.92;9.65;;;;;;;;;;5112232;27;20031;-75
2024/01/20 05:38:53;;;;;;;16.88;10.13;;;;;;;;;;5099433;27;20031;-73
2024/01/20 05:41:19;;;;;;;19.65;10.32;;;;;;;;;;5094921;27;20035;-73
2024/01/20 05:43:45;;;;;;;14.65;8.50;;;;;;;;;;5112572;27;20080;-73
2024/01/20 05:46:11;;;;;;;22.58;9.35;;;;;;;;;;5134746;27;20091;-73
2024/01/20 05:48:43;;;;;;;16.33;9.60;;;;;;;;;;5108714;27;20035;-75
2024/01/20 05:51:12;;;;;;;24.30;10.23;;;;;;;;;;5146110;27;20137;-73
2024/01/20 05:53:38;;;;;;;18.25;9.52;;;;;;;;;;5129893;27;20047;-73
2024/01/20 05:56:05;;;;;;;17.48;9.90;;;;;;;;;;5083692;28;20532;-73
2024/01/20 05:58:31;;;;;;;13.80;7.45;;;;;;;;;;5130250;27;20039;-74
2024/01/20 06:00:57;;;;;;;29.25;10.60;;;;;;;;;;5111064;27;20042;-71
2024/01/20 06:03:25;;;;;;;25.15;10.52;;;;;;;;;;5111465;27;20039;-72
2024/01/20 06:05:51;;;;;;;23.10;9.85;;;;;;;;;;5111955;27;20034;-74
2024/01/20 06:08:17;;;;;;;20.58;10.50;;;;;;;;;;5110827;27;20047;-73
2024/01/20 06:10:44;;;;;;;25.08;11.43;;;;;;;;;;5107852;28;20394;-73
2024/01/20 06:13:10;;;;;;;23.08;11.10;;;;;;;;;;5107735;28;20051;-73
2024/01/20 06:15:36;;;;;;;23.05;11.73;;;;;;;;;;5108465;28;20672;-73
2024/01/20 06:18:03;;;;;;;17.10;10.15;;;;;;;;;;5107921;27;20094;-74
2024/01/20 06:20:29;;;;;;;21.08;10.02;;;;;;;;;;5127147;27;20055;-73
2024/01/20 06:22:55;;;;;;;18.05;10.38;;;;;;;;;;5121436;27;20039;-74
2024/01/20 06:25:21;;;;;;;21.05;10.40;;;;;;;;;;5110383;27;20520;-73
2024/01/20 06:27:46;;;;;;;18.40;9.88;;;;;;;;;;5129149;27;20042;-74
2024/01/20 06:30:12;;;;;;;25.08;11.15;;;;;;;;;;5127580;27;20408;-74
2024/01/20 06:32:40;;;;;;;25.58;11.48;;;;;;;;;;5104614;28;20054;-74
2024/01/20 06:35:07;;;;;;;24.77;11.60;;;;;;;;;;5091446;28;20039;-74
2024/01/20 06:37:34;;;;;;;28.35;12.80;;;;;;;;;;5070162;28;20047;-74
2024/01/20 06:40:22;;;;;;;23.13;12.00;;;;;;;;;;5090058;28;20031;-74
2024/01/20 06:42:48;;;;;;;19.88;9.88;;;;;;;;;;5108185;28;20122;-75
2024/01/20 06:45:14;;;;;;;27.63;12.30;;;;;;;;;;5107984;28;20790;-74
2024/01/20 06:47:40;;;;;;;16.75;9.85;;;;;;;;;;5090102;28;20046;-74
2024/01/20 06:50:08;;;;;;;27.33;11.23;;;;;;;;;;5108344;27;20031;-75
2024/01/20 06:52:34;;;;;;;24.60;11.18;;;;;;;;;;5104416;28;20044;-74
2024/01/20 06:55:00;;;;;;;22.70;12.20;;;;;;;;;;5107726;28;20038;-74
2024/01/20 06:57:25;;;;;;;18.88;11.75;;;;;;;;;;5107667;28;20106;-75
2024/01/20 06:59:52;;;;;;;30.75;12.82;;;;;;;;;;5108967;28;20035;-74
2024/01/20 07:02:18;;;;;;;24.23;11.60;;;;;;;;;;5107549;28;20046;-74
2024/01/20 07:04:43;;;;;;;32.78;13.07;;;;;;;;;;5106998;28;20127;-75
2024/01/20 07:09:54;;;;;;;11.07;7.97;;;;;;;;;;5106236;28;20035;-74
2024/01/20 07:12:21;;;;;;;5.30;4.30;;;;;;;;;;5107389;28;20040;-74
2024/01/20 07:14:47;;;;;;;17.90;10.23;;;;;;;;;;5107380;28;20055;-74
2024/01/20 07:17:13;;;;;;;23.40;10.65;;;;;;;;;;5108815;28;20034;-74
2024/01/20 07:19:39;;;;;;;14.75;9.95;;;;;;;;;;5107159;28;20031;-74
2024/01/20 07:22:06;;;;;;;17.88;10.15;;;;;;;;;;5089082;28;20078;-73
2024/01/20 07:24:31;;;;;;;19.10;11.48;;;;;;;;;;5107112;28;20506;-74
2024/01/20 07:26:57;;;;;;;18.30;9.52;;;;;;;;;;5108764;28;20042;-74
2024/01/20 07:29:23;;;;;;;12.82;7.72;;;;;;;;;;5090205;28;20562;-74
2024/01/20 07:31:50;;;;;;;21.05;11.38;;;;;;;;;;5113378;27;20055;-73
2024/01/20 07:34:16;;;;;;;22.65;11.85;;;;;;;;;;5111341;27;20041;-76
2024/01/20 07:36:42;;;;;;;18.17;12.02;;;;;;;;;;5131032;27;20027;-75
2024/01/20 07:39:08;;;;;;;24.02;12.20;;;;;;;;;;5120790;27;20015;-75
2024/01/20 07:41:33;;;;;;;27.85;12.20;;;;;;;;;;5119860;28;20038;-74
2024/01/20 07:44:00;;;;;;;20.70;13.13;;;;;;;;;;5111090;27;20373;-74
2024/01/20 07:46:26;;;;;;;26.02;13.48;;;;;;;;;;5129312;27;20078;-74
2024/01/20 07:48:51;;;;;;;9.13;7.00;;;;;;;;;;5129805;27;20027;-75
2024/01/20 07:51:17;;;;;;;6.90;5.65;;;;;;;;;;5111335;27;20039;-75
2024/01/20 07:54:02;;;;;;;14.68;9.27;;;;;;;;;;5111707;27;20067;-75
2024/01/20 07:56:28;;;;;;;12.18;9.82;;;;;;;;;;5110076;27;20115;-74
2024/01/20 07:58:54;;;;;;;13.02;8.20;;;;;;;;;;5127345;27;20102;-75
2024/01/20 08:01:19;;;;;;;15.68;9.85;;;;;;;;;;5129340;27;20087;-75
2024/01/20 08:03:45;;;;;;;18.42;10.20;;;;;;;;;;5129163;27;20060;-75
2024/01/20 08:06:12;;;;;;;23.00;12.13;;;;;;;;;;5093427;27;20062;-75
2024/01/20 08:08:38;;;;;;;6.25;5.75;;;;;;;;;;5111240;27;20019;-75
2024/01/20 08:11:04;;;;;;;19.45;10.95;;;;;;;;;;5129210;27;20055;-75
2024/01/20 08:13:29;;;;;;;3.95;3.60;;;;;;;;;;5110251;27;20126;-75
2024/01/20 08:15:55;;;;;;;9.60;6.78;;;;;;;;;;5110319;28;20416;-74
2024/01/20 08:18:21;;;;;;;31.95;14.30;;;;;;;;;;5091585;27;20051;-74
2024/01/20 08:20:47;;;;;;;21.15;12.57;;;;;;;;;;5128229;27;20023;-74
2024/01/20 08:23:13;;;;;;;36.53;16.88;;;;;;;;;;5128732;27;20409;-75
2024/01/20 08:25:39;;;;;;;36.40;19.73;;;;;;;;;;5128929;27;20035;-74
2024/01/20 08:28:05;;;;;;;28.33;15.95;;;;;;;;;;5110368;28;20575;-75
2024/01/20 08:30:30;;;;;;;27.95;16.48;;;;;;;;;;5128260;27;20042;-76
2024/01/20 08:32:57;;;;;;;23.48;13.20;;;;;;;;;;5091153;28;20055;-75
2024/01/20 08:35:23;;;;;;;29.80;15.65;;;;;;;;;;5109885;28;20500;-75
2024/01/20 08:37:48;;;;;;;18.35;11.60;;;;;;;;;;5129123;27;20034;-75
2024/01/20 08:40:14;;;;;;;22.60;12.55;;;;;;;;;;5109616;27;20465;-75
2024/01/20 08:42:42;;;;;;;25.10;13.60;;;;;;;;;;5133233;27;20023;-75
2024/01/20 08:45:09;;;;;;;19.75;9.18;;;;;;;;;;5095798;27;20486;-75
2024/01/20 08:47:35;;;;;;;15.90;9.70;;;;;;;;;;5110017;27;20034;-75
2024/01/20 08:50:00;;;;;;;13.93;8.85;;;;;;;;;;5132596;27;20031;-75
2024/01/20 08:52:26;;;;;;;13.00;8.52;;;;;;;;;;5113391;27;20103;-75
2024/01/20 08:54:52;;;;;;;18.58;9.98;;;;;;;;;;5132384;27;20031;-75
2024/01/20 08:57:22;;;;;;;24.42;12.70;;;;;;;;;;5129284;27;20027;-75
2024/01/20 08:59:47;;;;;;;19.42;10.95;;;;;;;;;;5132153;27;20088;-75
2024/01/20 09:02:13;;;;;;;29.33;13.55;;;;;;;;;;5131979;27;20027;-75
2024/01/20 09:04:39;;;;;;;22.05;12.02;;;;;;;;;;5131450;27;20046;-74
2024/01/20 09:07:06;;;;;;;17.73;10.23;;;;;;;;;;5131402;27;20035;-74
2024/01/20 09:09:31;;;;;;;11.05;7.22;;;;;;;;;;5131913;27;20027;-74
2024/01/20 09:11:57;;;;;;;15.05;9.93;;;;;;;;;;5113892;27;20063;-74
2024/01/20 09:14:23;;;;;;;14.95;9.23;;;;;;;;;;5101948;27;20066;-78
2024/01/20 09:16:49;;;;;;;15.57;9.90;;;;;;;;;;5110558;27;20106;-76
2024/01/20 09:19:15;;;;;;;15.45;9.10;;;;;;;;;;5114504;27;20083;-76
2024/01/20 09:21:45;;;;;;;9.77;7.78;;;;;;;;;;5110675;28;20039;-76
2024/01/20 09:24:11;;;;;;;7.75;6.55;;;;;;;;;;5114565;27;20091;-76
2024/01/20 09:26:36;;;;;;;15.93;9.90;;;;;;;;;;5127197;27;20604;-74
2024/01/20 09:29:02;;;;;;;9.18;6.70;;;;;;;;;;5131836;27;20042;-74
2024/01/20 09:31:29;;;;;;;4.00;3.65;;;;;;;;;;5140060;27;20035;-73
2024/01/20 09:33:54;;;;;;;12.85;8.00;;;;;;;;;;5129282;27;20039;-73
2024/01/20 09:36:24;;;;;;;16.98;10.10;;;;;;;;;;5076344;27;20031;-73
2024/01/20 09:38:51;;;;;;;14.48;9.18;;;;;;;;;;5121871;27;20080;-73
2024/01/20 09:41:17;;;;;;;9.48;8.23;;;;;;;;;;5112712;27;20122;-76
2024/01/20 09:43:43;;;;;;;9.00;7.15;;;;;;;;;;5131177;27;20170;-75
2024/01/20 09:46:09;;;;;;;17.00;9.10;;;;;;;;;;5126350;27;20023;-74
2024/01/20 09:48:35;;;;;;;12.13;5.60;;;;;;;;;;5145968;27;20552;-76
2024/01/20 09:51:00;;;;;;;14.05;6.78;;;;;;;;;;5114770;27;20064;-76
2024/01/20 09:53:26;;;;;;;12.80;8.98;;;;;;;;;;5115942;27;20054;-77
2024/01/20 09:55:52;;;;;;;7.90;4.82;;;;;;;;;;5143137;27;20030;-76
2024/01/20 09:58:19;;;;;;;22.92;10.65;;;;;;;;;;5084518;27;20023;-76
2024/01/20 10:00:45;;;;;;;16.60;10.77;;;;;;;;;;5110717;27;20037;-78
2024/01/20 10:03:11;;;;;;;19.58;10.52;;;;;;;;;;5114614;27;20039;-77
2024/01/20 10:05:38;;;;;;;5.30;4.70;;;;;;;;;;5116643;27;20117;-74
2024/01/20 10:08:05;;;;;;;21.25;11.32;;;;;;;;;;5114534;27;20039;-76
2024/01/20 10:10:32;;;;;;;20.90;11.05;;;;;;;;;;5095693;27;20031;-76
2024/01/20 10:12:58;;;;;;;15.60;9.85;;;;;;;;;;5125838;27;20047;-78
2024/01/20 10:15:28;;;;;;;15.02;9.32;;;;;;;;;;5093073;27;20027;-77
2024/01/20 10:17:57;;;;;;;8.27;7.25;;;;;;;;;;5124494;27;20409;-76
2024/01/20 10:20:24;;;;;;;15.73;8.45;;;;;;;;;;5109647;27;20093;-75
2024/01/20 10:22:50;;;;;;;18.20;10.85;;;;;;;;;;5127636;27;20516;-76
2024/01/20 10:25:19;;;;;;;15.82;10.75;;;;;;;;;;5127189;27;20031;-79
2024/01/20 10:27:47;;;;;;;14.77;6.57;;;;;;;;;;5112960;27;20035;-77
2024/01/20 10:30:17;;;;;;;6.70;5.85;;;;;;;;;;5117379;27;20036;-73
2024/01/20 10:32:44;;;;;;;9.43;5.47;;;;;;;;;;5126826;27;20057;-74
2024/01/20 10:35:10;;;;;;;15.00;9.68;;;;;;;;;;5095960;28;20528;-76
2024/01/20 10:37:37;;;;;;;12.48;8.57;;;;;;;;;;5106456;27;20023;-74
2024/01/20 10:40:03;;;;;;;11.05;6.10;;;;;;;;;;5111851;27;20031;-76
2024/01/20 10:42:33;;;;;;;9.73;7.70;;;;;;;;;;5087027;28;20028;-73
2024/01/20 10:44:59;;;;;;;17.02;9.88;;;;;;;;;;5091890;28;20036;-73
2024/01/20 10:47:36;;;;;;;17.55;10.55;;;;;;;;;;5122088;27;20035;-74
2024/01/20 10:50:03;;;;;;;9.18;6.47;;;;;;;;;;5091668;28;20066;-73
2024/01/20 10:52:34;;;;;;;16.83;10.32;;;;;;;;;;5118147;27;20046;-75
2024/01/20 10:55:00;;;;;;;14.25;9.50;;;;;;;;;;5130976;27;20636;-74
2024/01/20 10:57:26;;;;;;;18.88;11.00;;;;;;;;;;5136271;27;20041;-74
2024/01/20 10:59:52;;;;;;;6.05;5.13;;;;;;;;;;5125105;27;20031;-74
2024/01/20 11:02:17;;;;;;;12.50;7.43;;;;;;;;;;5120414;28;20525;-74
2024/01/20 11:04:44;;;;;;;13.07;9.38;;;;;;;;;;5121999;28;20443;-75
2024/01/20 11:07:12;;;;;;;11.82;8.00;;;;;;;;;;5127542;27;20057;-76
2024/01/20 11:09:38;;;;;;;9.40;7.82;;;;;;;;;;5120929;27;20015;-75
2024/01/20 11:12:07;;;;;;;15.70;9.07;;;;;;;;;;5137467;27;20031;-76
2024/01/20 11:14:33;;;;;;;22.88;11.60;;;;;;;;;;5129862;27;20034;-75
2024/01/20 11:17:12;;;;;;;20.13;10.05;;;;;;;;;;5094017;27;20729;-76
2024/01/20 11:19:38;;;;;;;19.02;9.60;;;;;;;;;;5132967;27;20062;-75
2024/01/20 11:22:04;;;;;;;15.80;8.50;;;;;;;;;;5138957;27;20027;-75
2024/01/20 11:24:37;;;;;;;12.88;8.75;;;;;;;;;;5112535;27;20043;-74
2024/01/20 11:27:04;;;;;;;18.85;11.82;;;;;;;;;;5103579;28;20455;-75
2024/01/20 11:29:29;;;;;;;21.80;10.30;;;;;;;;;;5110935;27;20054;-74
2024/01/20 11:31:55;;;;;;;16.58;8.82;;;;;;;;;;5110494;28;20516;-75
2024/01/20 11:34:21;;;;;;;24.27;10.82;;;;;;;;;;5129045;27;20054;-76
2024/01/20 11:36:48;;;;;;;23.30;10.90;;;;;;;;;;5108458;28;20019;-75
2024/01/20 11:39:14;;;;;;;13.45;8.32;;;;;;;;;;5125982;27;20050;-78
2024/01/20 11:41:40;;;;;;;16.30;10.30;;;;;;;;;;5110409;27;20404;-74
2024/01/20 11:44:06;;;;;;;26.60;10.93;;;;;;;;;;5118982;27;20041;-76
2024/01/20 11:46:32;;;;;;;15.05;9.38;;;;;;;;;;5117974;27;20033;-78
2024/01/20 11:48:58;;;;;;;18.45;10.23;;;;;;;;;;5110569;27;20062;-75
2024/01/20 11:51:24;;;;;;;17.08;8.73;;;;;;;;;;5091742;27;20054;-76
2024/01/20 11:53:50;;;;;;;19.95;11.52;;;;;;;;;;5124760;27;20047;-76
2024/01/20 11:56:16;;;;;;;20.52;10.48;;;;;;;;;;5110468;27;20028;-73
2024/01/20 11:58:42;;;;;;;14.95;9.15;;;;;;;;;;5117014;27;20046;-73
2024/01/20 12:01:08;;;;;;;9.65;7.68;;;;;;;;;;5090085;28;20109;-74
2024/01/20 12:03:33;;;;;;;17.45;10.95;;;;;;;;;;5100588;28;20365;-74
2024/01/20 12:06:05;;;;;;;20.20;10.38;;;;;;;;;;5110384;28;20630;-74
2024/01/20 12:08:32;;;;;;;22.23;9.15;;;;;;;;;;5099929;27;20071;-73
2024/01/20 12:10:58;;;;;;;13.63;9.35;;;;;;;;;;5099073;27;20034;-75
2024/01/20 12:13:25;;;;;;;19.33;11.02;;;;;;;;;;5121013;27;20035;-74
2024/01/20 12:15:51;;;;;;;17.02;10.23;;;;;;;;;;5118940;27;20036;-74
2024/01/20 12:18:17;;;;;;;15.35;8.80;;;;;;;;;;5110429;27;20034;-74
2024/01/20 12:20:43;;;;;;;13.90;8.43;;;;;;;;;;5120414;27;20484;-74
2024/01/20 12:23:10;;;;;;;18.65;10.07;;;;;;;;;;5121741;27;20038;-73
2024/01/20 12:25:35;;;;;;;17.10;9.68;;;;;;;;;;5111145;28;20517;-74
2024/01/20 12:28:01;;;;;;;12.18;8.13;;;;;;;;;;5110918;28;20043;-74
2024/01/20 12:30:28;;;;;;;14.20;7.07;;;;;;;;;;5094272;28;20039;-74
2024/01/20 12:32:55;;;;;;;15.50;7.25;;;;;;;;;;5112405;28;20050;-74
2024/01/20 12:35:21;;;;;;;17.58;8.40;;;;;;;;;;5112381;28;20126;-74
2024/01/20 12:37:50;;;;;;;15.93;10.45;;;;;;;;;;5112041;28;20107;-74
2024/01/20 12:40:15;;;;;;;17.35;4.65;;;;;;;;;;5094454;28;20509;-74
2024/01/20 12:42:41;;;;;;;9.25;6.55;;;;;;;;;;5093524;28;20051;-74
2024/01/20 12:45:08;;;;;;;9.35;7.60;;;;;;;;;;5101950;27;20113;-74
2024/01/20 12:47:34;;;;;;;8.38;5.13;;;;;;;;;;5132216;27;20031;-74
2024/01/20 12:50:00;;;;;;;13.45;8.35;;;;;;;;;;5097333;27;20095;-74
2024/01/20 12:52:26;;;;;;;6.75;4.72;;;;;;;;;;5096781;27;20036;-74
2024/01/20 12:54:53;;;;;;;18.88;11.63;;;;;;;;;;5132303;27;20039;-74
2024/01/20 12:57:19;;;;;;;26.98;10.50;;;;;;;;;;5132428;27;20255;-74
2024/01/20 12:59:46;;;;;;;19.67;10.63;;;;;;;;;;5114087;27;20541;-74
2024/01/20 13:02:12;;;;;;;21.77;9.40;;;;;;;;;;5114173;27;20060;-74
2024/01/20 13:04:39;;;;;;;19.42;10.10;;;;;;;;;;5132370;27;20035;-74
2024/01/20 13:07:05;;;;;;;13.23;6.80;;;;;;;;;;5132309;27;20148;-73
2024/01/20 13:09:31;;;;;;;21.02;10.90;;;;;;;;;;5113872;27;20126;-74
2024/01/20 13:11:57;;;;;;;8.00;5.88;;;;;;;;;;5114587;27;20031;-74
2024/01/20 13:14:23;;;;;;;12.38;6.60;;;;;;;;;;5127181;27;20092;-74
2024/01/20 13:16:50;;;;;;;9.90;6.50;;;;;;;;;;5113963;27;20107;-73
2024/01/20 13:19:16;;;;;;;16.08;10.32;;;;;;;;;;5098419;28;20539;-75
2024/01/20 13:21:42;;;;;;;8.15;5.45;;;;;;;;;;5093034;28;20035;-74
2024/01/20 13:24:08;;;;;;;9.07;7.30;;;;;;;;;;5093356;28;20139;-74
2024/01/20 13:26:34;;;;;;;23.17;11.77;;;;;;;;;;5092744;28;20110;-74
2024/01/20 13:29:00;;;;;;;22.77;15.55;;;;;;;;;;5092947;28;20481;-73
2024/01/20 13:31:26;;;;;;;20.42;12.55;;;;;;;;;;5088172;27;20023;-74
2024/01/20 13:33:52;;;;;;;7.13;6.47;;;;;;;;;;5122208;27;20141;-74
2024/01/20 13:36:18;;;;;;;19.05;10.77;;;;;;;;;;5113157;27;20457;-74
2024/01/20 13:38:44;;;;;;;22.25;11.93;;;;;;;;;;5095883;27;20504;-74
2024/01/20 13:41:09;;;;;;;21.80;11.98;;;;;;;;;;5113004;27;20039;-73
2024/01/20 13:43:35;;;;;;;18.23;12.43;;;;;;;;;;5131381;27;20035;-73
2024/01/20 13:46:03;;;;;;;29.45;15.13;;;;;;;;;;5131170;27;20118;-73
2024/01/20 13:48:29;;;;;;;17.20;9.45;;;;;;;;;;5130967;27;20035;-74
2024/01/20 13:50:55;;;;;;;27.98;15.63;;;;;;;;;;5131198;27;20039;-73
2024/01/20 13:53:20;;;;;;;21.73;14.35;;;;;;;;;;5112759;27;20129;-73
2024/01/20 13:55:46;;;;;;;31.50;17.63;;;;;;;;;;5130754;27;20035;-73
2024/01/20 13:58:15;;;;;;;24.77;14.98;;;;;;;;;;5112701;27;20058;-73
2024/01/20 14:00:41;;;;;;;23.45;13.77;;;;;;;;;;5112227;27;20118;-73
2024/01/20 14:03:07;;;;;;;18.50;11.90;;;;;;;;;;5123654;27;20027;-74
2024/01/20 14:05:33;;;;;;;5.95;5.43;;;;;;;;;;5110217;28;20203;-74
2024/01/20 14:07:59;;;;;;;17.95;9.80;;;;;;;;;;5110432;28;20494;-74
2024/01/20 14:10:25;;;;;;;12.27;8.98;;;;;;;;;;5075307;28;20114;-74
2024/01/20 14:12:51;;;;;;;16.58;10.25;;;;;;;;;;5110130;28;20035;-74
2024/01/20 14:15:19;;;;;;;11.55;8.00;;;;;;;;;;5093533;27;20043;-73
2024/01/20 14:17:46;;;;;;;15.57;10.80;;;;;;;;;;5111771;27;20042;-73
2024/01/20 14:20:12;;;;;;;19.98;9.77;;;;;;;;;;5112598;27;20515;-74
2024/01/20 14:22:40;;;;;;;18.10;10.10;;;;;;;;;;5130039;27;20031;-73